Time;durP1;ratioP1;P1;durP2;ratioP2;P2;SDS_P1;SDS_P2;PMS_P1;PMS_P2;Temp;Humidity;BMP_temperature;BMP_pressure;BME280_temperature;BME280_humidity;BME280_pressure;Samples;Min_cycle;Max_cycle;Signal;HPM_P1;HPM_P2
2023/02/08 00:00:20;;;;;;;29.23;24.33;;;-2.60;87.20;;;;;;4995800;28;20209;-88
2023/02/08 00:02:45;;;;;;;29.53;23.80;;;-2.70;87.30;;;;;;4994253;28;20567;-87
2023/02/08 00:05:11;;;;;;;32.83;26.67;;;-2.70;87.30;;;;;;4995417;28;20186;-88
2023/02/08 00:07:36;;;;;;;32.47;26.37;;;-2.70;87.30;;;;;;4994013;28;20178;-88
2023/02/08 00:10:05;;;;;;;36.27;25.60;;;-2.70;87.30;;;;;;4994144;28;20189;-88
2023/02/08 00:12:31;;;;;;;30.10;25.13;;;-2.60;87.40;;;;;;4994025;28;20303;-87
2023/02/08 00:14:56;;;;;;;32.23;25.47;;;-2.60;87.50;;;;;;4994192;28;20244;-88
2023/02/08 00:17:22;;;;;;;32.73;25.60;;;-2.60;87.40;;;;;;4993984;28;20197;-88
2023/02/08 00:19:47;;;;;;;36.50;25.90;;;-2.60;87.50;;;;;;4993735;28;20204;-88
2023/02/08 00:22:13;;;;;;;30.93;25.03;;;-2.60;87.50;;;;;;4994862;28;20689;-88
2023/02/08 00:24:38;;;;;;;31.20;25.60;;;-2.60;87.40;;;;;;4994898;28;20177;-88
2023/02/08 00:27:04;;;;;;;31.73;24.73;;;-2.70;87.30;;;;;;4994898;28;20524;-88
2023/02/08 00:29:30;;;;;;;33.57;24.57;;;-2.70;87.30;;;;;;4993699;28;20181;-88
2023/02/08 00:31:55;;;;;;;31.10;24.13;;;-2.70;87.20;;;;;;4993228;28;20201;-88
2023/02/08 00:34:21;;;;;;;30.80;24.47;;;-2.70;87.20;;;;;;4994372;28;20170;-87
2023/02/08 00:36:46;;;;;;;34.27;24.23;;;-2.70;87.20;;;;;;4993559;28;20647;-87
2023/02/08 00:39:12;;;;;;;29.83;23.53;;;-2.80;87.10;;;;;;4993414;28;20209;-88
2023/02/08 00:41:37;;;;;;;28.57;23.33;;;-2.70;87.10;;;;;;4994640;28;20217;-88
2023/02/08 00:44:03;;;;;;;26.37;23.23;;;-2.70;87.10;;;;;;4993725;28;20193;-87
2023/02/08 00:46:28;;;;;;;31.73;24.93;;;-2.80;87.00;;;;;;4993271;28;20177;-86
2023/02/08 00:48:54;;;;;;;33.87;23.67;;;-2.70;87.10;;;;;;4993413;28;20182;-86
2023/02/08 00:51:20;;;;;;;30.00;23.07;;;-2.70;87.00;;;;;;4994629;28;20208;-86
2023/02/08 00:53:45;;;;;;;28.63;24.77;;;-2.80;86.90;;;;;;4994322;28;20224;-86
2023/02/08 00:56:13;;;;;;;32.00;25.77;;;-2.80;86.80;;;;;;4993409;28;20667;-86
2023/02/08 00:58:39;;;;;;;28.50;24.63;;;-2.90;86.70;;;;;;4994317;28;20208;-86
2023/02/08 01:01:06;;;;;;;28.87;24.80;;;-2.90;86.70;;;;;;4993378;28;20660;-86
2023/02/08 01:03:37;;;;;;;32.50;25.10;;;-2.90;86.60;;;;;;4994553;28;20632;-86
2023/02/08 01:06:05;;;;;;;31.43;24.70;;;-2.90;86.70;;;;;;4994553;28;20257;-86
2023/02/08 01:08:30;;;;;;;30.43;24.17;;;-2.90;86.60;;;;;;4993122;28;20270;-87
2023/02/08 01:11:08;;;;;;;28.47;25.47;;;-3.00;86.50;;;;;;4993233;28;20253;-88
2023/02/08 01:13:35;;;;;;;28.73;25.13;;;-2.90;86.50;;;;;;4993014;28;20186;-88
2023/02/08 01:16:15;;;;;;;31.10;24.43;;;-3.00;86.20;;;;;;4993025;28;20190;-88
2023/02/08 01:18:43;;;;;;;29.23;24.97;;;-3.10;86.10;;;;;;4994127;28;20219;-88
2023/02/08 01:21:12;;;;;;;27.00;24.00;;;-3.10;86.10;;;;;;4994090;28;20199;-87
2023/02/08 01:23:38;;;;;;;29.60;25.70;;;-3.10;86.00;;;;;;4992889;28;20183;-88
2023/02/08 01:26:05;;;;;;;31.87;26.27;;;-3.20;85.80;;;;;;4992846;28;20189;-88
2023/02/08 01:28:31;;;;;;;30.13;26.17;;;-3.10;86.00;;;;;;4992820;28;20192;-88
2023/02/08 01:30:57;;;;;;;33.93;26.70;;;-3.30;86.00;;;;;;4993963;28;20199;-88
2023/02/08 01:33:23;;;;;;;30.97;26.77;;;-3.30;86.30;;;;;;4994022;28;20178;-88
2023/02/08 01:35:52;;;;;;;30.87;26.13;;;-3.40;86.50;;;;;;4992898;28;20184;-88
2023/02/08 01:38:18;;;;;;;33.60;26.60;;;-3.30;86.60;;;;;;4992724;28;20185;-88
2023/02/08 01:40:44;;;;;;;34.70;26.17;;;-3.20;86.70;;;;;;4994125;28;20681;-88
2023/02/08 01:43:23;;;;;;;32.43;26.87;;;-3.20;86.60;;;;;;4992897;28;20196;-88
2023/02/08 01:45:49;;;;;;;30.80;25.53;;;-3.30;86.60;;;;;;4996795;28;20183;-88
2023/02/08 01:48:21;;;;;;;31.17;25.67;;;-3.30;86.50;;;;;;4997921;28;20183;-88
2023/02/08 01:51:11;;;;;;;32.63;25.40;;;-3.20;86.50;;;;;;4996701;28;20293;-88
2023/02/08 01:53:38;;;;;;;33.67;25.33;;;-3.30;86.30;;;;;;4996614;28;20184;-88
2023/02/08 01:56:09;;;;;;;30.17;24.27;;;-3.20;86.30;;;;;;4997595;28;20376;-88
2023/02/08 01:58:40;;;;;;;30.70;24.37;;;-3.20;86.20;;;;;;4996672;28;20293;-88
2023/02/08 02:01:06;;;;;;;31.10;24.50;;;-3.30;86.20;;;;;;4996634;28;20576;-88
2023/02/08 02:03:33;;;;;;;28.47;24.07;;;-3.30;86.20;;;;;;4996502;28;20187;-88
2023/02/08 02:06:09;;;;;;;29.47;25.70;;;-3.40;86.10;;;;;;4996507;28;20335;-88
2023/02/08 02:08:35;;;;;;;31.10;25.47;;;-3.40;86.10;;;;;;4996254;28;20638;-88
2023/02/08 02:11:00;;;;;;;27.43;23.27;;;-3.40;86.10;;;;;;4996203;28;20300;-88
2023/02/08 02:13:27;;;;;;;37.90;23.93;;;-3.40;86.20;;;;;;4997393;28;20267;-88
2023/02/08 02:15:53;;;;;;;30.50;24.57;;;-3.40;86.10;;;;;;4997498;28;20185;-87
2023/02/08 02:18:26;;;;;;;33.53;25.03;;;-3.40;85.90;;;;;;4996074;28;20183;-88
2023/02/08 02:21:10;;;;;;;30.80;25.37;;;-3.40;85.90;;;;;;4995902;28;20778;-88
2023/02/08 02:24:06;;;;;;;32.77;26.30;;;-3.40;85.90;;;;;;4997526;28;20214;-88
2023/02/08 02:26:50;;;;;;;29.87;25.27;;;-3.40;85.90;;;;;;4996076;28;20174;-88
2023/02/08 02:30:06;;;;;;;29.13;24.33;;;-3.50;86.00;;;;;;4995928;28;20314;-87
2023/02/08 02:32:32;;;;;;;35.43;24.63;;;-3.50;86.00;;;;;;4988130;28;20625;-88
2023/02/08 02:35:14;;;;;;;29.60;25.37;;;-3.50;85.90;;;;;;4995844;28;20172;-88
2023/02/08 02:37:55;;;;;;;35.33;23.93;;;-3.50;85.90;;;;;;4995871;28;20180;-88
2023/02/08 02:40:45;;;;;;;29.43;25.33;;;-3.50;85.80;;;;;;4995569;28;20625;-88
2023/02/08 02:43:45;;;;;;;33.97;25.17;;;-3.60;85.90;;;;;;4995749;28;20558;-88
2023/02/08 02:46:34;;;;;;;30.93;25.07;;;-3.60;86.00;;;;;;4995921;28;20234;-87
2023/02/08 02:49:24;;;;;;;31.40;24.73;;;-3.60;86.20;;;;;;4996098;28;20166;-88
2023/02/08 02:52:03;;;;;;;30.37;25.93;;;-3.60;86.60;;;;;;4996289;28;20305;-88
2023/02/08 02:54:38;;;;;;;33.77;25.53;;;-3.60;86.70;;;;;;4997335;28;20164;-88
2023/02/08 02:57:09;;;;;;;31.33;24.43;;;-3.70;86.80;;;;;;4995765;28;20170;-87
2023/02/08 02:59:37;;;;;;;27.87;24.80;;;-3.70;86.90;;;;;;4995935;28;20292;-87
2023/02/08 03:02:03;;;;;;;32.10;25.27;;;-3.70;87.20;;;;;;4995953;28;20202;-87
2023/02/08 03:04:32;;;;;;;33.43;25.80;;;-3.80;87.00;;;;;;4995669;28;20546;-88
2023/02/08 03:07:03;;;;;;;31.00;25.17;;;-3.90;87.10;;;;;;4995605;28;20207;-87
2023/02/08 03:10:06;;;;;;;30.03;25.60;;;-3.90;87.20;;;;;;4995636;28;20561;-87
2023/02/08 03:12:58;;;;;;;30.27;24.00;;;-3.90;87.30;;;;;;4995871;28;20252;-87
2023/02/08 03:15:44;;;;;;;32.17;26.13;;;-3.90;87.40;;;;;;4995797;28;20793;-89
2023/02/08 03:18:16;;;;;;;35.23;26.73;;;-3.80;87.50;;;;;;4995163;28;20258;-88
2023/02/08 03:21:05;;;;;;;30.37;26.13;;;-3.80;87.60;;;;;;4994953;28;20300;-89
2023/02/08 03:23:39;;;;;;;39.07;27.87;;;-3.70;87.70;;;;;;4994977;28;20171;-88
2023/02/08 03:26:21;;;;;;;40.63;28.23;;;-3.70;87.70;;;;;;4994939;28;20242;-88
2023/02/08 03:28:56;;;;;;;39.43;28.73;;;-3.80;87.60;;;;;;4996024;28;20160;-88
2023/02/08 03:31:31;;;;;;;35.30;27.67;;;-3.90;87.60;;;;;;4994955;28;20198;-88
2023/02/08 03:34:08;;;;;;;36.10;29.33;;;-3.90;87.70;;;;;;4994785;28;20174;-88
2023/02/08 03:36:48;;;;;;;40.10;28.50;;;-3.80;87.80;;;;;;4995902;28;20736;-89
2023/02/08 03:39:20;;;;;;;36.47;28.07;;;-3.90;87.80;;;;;;4995840;28;20205;-89
2023/02/08 03:41:50;;;;;;;38.47;29.70;;;-3.80;88.00;;;;;;4994467;28;20213;-88
2023/02/08 03:44:22;;;;;;;36.93;29.70;;;-3.80;88.30;;;;;;4994597;28;20180;-89
2023/02/08 03:46:53;;;;;;;43.57;30.93;;;-3.80;88.40;;;;;;4994491;28;20178;-88
2023/02/08 03:49:23;;;;;;;39.80;29.93;;;-3.70;88.60;;;;;;4994406;28;20178;-89
2023/02/08 03:51:50;;;;;;;39.00;29.27;;;-3.70;88.60;;;;;;4994169;28;20682;-89
2023/02/08 03:54:20;;;;;;;41.17;29.40;;;-3.80;88.60;;;;;;4995424;28;20179;-89
2023/02/08 03:56:51;;;;;;;39.70;29.33;;;-3.70;88.70;;;;;;4994274;28;20184;-89
2023/02/08 03:59:23;;;;;;;39.53;29.43;;;-3.80;88.70;;;;;;4994172;28;20752;-89
2023/02/08 04:01:56;;;;;;;39.77;29.20;;;-3.80;88.70;;;;;;4993913;28;20276;-89
2023/02/08 04:04:23;;;;;;;35.90;27.87;;;-3.80;88.80;;;;;;4995244;28;20544;-88
2023/02/08 04:06:49;;;;;;;41.77;30.20;;;-3.80;88.80;;;;;;4993919;28;20175;-88
2023/02/08 04:09:14;;;;;;;41.37;29.63;;;-3.70;89.00;;;;;;4995176;28;20174;-88
2023/02/08 04:11:40;;;;;;;42.43;29.63;;;-3.60;89.00;;;;;;4994442;28;20259;-89
2023/02/08 04:14:05;;;;;;;39.73;28.17;;;-3.60;89.10;;;;;;4993953;28;20229;-88
2023/02/08 04:16:31;;;;;;;41.20;29.60;;;-3.50;89.10;;;;;;4993833;28;20182;-88
2023/02/08 04:18:56;;;;;;;43.67;28.87;;;-3.50;89.10;;;;;;4993645;28;20206;-88
2023/02/08 04:21:22;;;;;;;34.80;28.63;;;-3.50;89.10;;;;;;4993688;28;20204;-89
2023/02/08 04:23:47;;;;;;;42.70;29.40;;;-3.60;89.10;;;;;;4995213;28;20170;-89
2023/02/08 04:26:13;;;;;;;46.70;30.47;;;-3.50;89.10;;;;;;4993721;28;20372;-89
2023/02/08 04:28:38;;;;;;;41.97;29.53;;;-3.50;89.10;;;;;;4995004;28;20182;-88
2023/02/08 04:31:04;;;;;;;42.70;29.10;;;-3.50;89.10;;;;;;4993706;28;20695;-88
2023/02/08 04:33:29;;;;;;;41.50;28.57;;;-3.60;89.10;;;;;;4993410;28;20264;-88
2023/02/08 04:35:55;;;;;;;38.80;29.03;;;-3.50;89.20;;;;;;4993361;28;20179;-88
2023/02/08 04:38:21;;;;;;;40.83;29.53;;;-3.60;89.20;;;;;;4993287;28;20288;-89
2023/02/08 04:40:46;;;;;;;45.87;30.53;;;-3.50;89.30;;;;;;4994721;28;20217;-88
2023/02/08 04:43:11;;;;;;;40.50;29.17;;;-3.50;89.40;;;;;;4993192;28;20192;-89
2023/02/08 04:45:37;;;;;;;40.33;30.43;;;-3.50;89.50;;;;;;4993277;28;20174;-88
2023/02/08 04:48:03;;;;;;;46.23;29.80;;;-3.40;89.40;;;;;;4994341;28;20175;-88
2023/02/08 04:50:29;;;;;;;38.40;30.40;;;-3.40;89.40;;;;;;4993203;28;20692;-89
2023/02/08 04:52:55;;;;;;;39.77;30.13;;;-3.40;89.40;;;;;;4993518;28;20192;-89
2023/02/08 04:55:20;;;;;;;42.37;29.83;;;-3.40;89.40;;;;;;4993221;28;20187;-89
2023/02/08 04:57:46;;;;;;;40.47;29.03;;;-3.40;89.40;;;;;;4993214;28;20194;-88
2023/02/08 05:00:12;;;;;;;46.13;29.90;;;-3.40;89.40;;;;;;4994153;28;20579;-88
2023/02/08 05:02:38;;;;;;;43.83;32.57;;;-3.40;89.50;;;;;;4993061;28;20228;-88
2023/02/08 05:05:03;;;;;;;43.97;31.63;;;-3.30;89.50;;;;;;4993018;28;20204;-89
2023/02/08 05:07:29;;;;;;;46.30;32.83;;;-3.30;89.50;;;;;;4992991;28;20700;-88
2023/02/08 05:09:55;;;;;;;44.93;30.83;;;-3.20;89.60;;;;;;4994233;28;20189;-88
2023/02/08 05:12:20;;;;;;;43.43;30.50;;;-3.30;89.50;;;;;;4993197;28;20294;-88
2023/02/08 05:14:46;;;;;;;43.63;32.37;;;-3.30;89.40;;;;;;4993168;28;20204;-89
2023/02/08 05:17:11;;;;;;;47.27;31.37;;;-3.30;89.60;;;;;;4994078;28;20276;-88
2023/02/08 05:19:37;;;;;;;43.63;32.10;;;-3.30;89.60;;;;;;4992706;28;20202;-88
2023/02/08 05:22:02;;;;;;;44.10;31.87;;;-3.30;89.60;;;;;;4993157;28;20208;-88
2023/02/08 05:24:28;;;;;;;42.03;30.97;;;-3.20;89.60;;;;;;4994239;28;20174;-88
2023/02/08 05:26:53;;;;;;;46.73;33.30;;;-3.20;89.70;;;;;;4993025;28;20247;-88
2023/02/08 05:29:19;;;;;;;51.67;33.00;;;-3.20;89.60;;;;;;4994303;28;20190;-88
2023/02/08 05:31:44;;;;;;;47.23;32.13;;;-3.10;89.80;;;;;;4993162;28;20207;-88
2023/02/08 05:34:11;;;;;;;44.43;32.90;;;-3.10;89.70;;;;;;4993137;28;20188;-89
2023/02/08 05:36:37;;;;;;;45.70;31.60;;;-3.10;89.80;;;;;;4993071;28;20211;-89
2023/02/08 05:39:03;;;;;;;41.57;31.50;;;-3.10;89.80;;;;;;4993020;28;20238;-88
2023/02/08 05:41:28;;;;;;;45.67;31.97;;;-3.10;89.70;;;;;;4992798;28;20248;-89
2023/02/08 05:43:54;;;;;;;44.97;30.97;;;-3.20;89.70;;;;;;4992922;28;20172;-88
2023/02/08 05:46:19;;;;;;;47.00;31.63;;;-3.20;89.70;;;;;;4992793;28;20200;-88
2023/02/08 05:48:45;;;;;;;47.93;31.60;;;-3.20;89.70;;;;;;4992852;28;20207;-88
2023/02/08 05:51:10;;;;;;;49.23;33.30;;;-3.10;89.70;;;;;;4992684;28;20204;-89
2023/02/08 05:53:36;;;;;;;43.00;32.00;;;-3.20;89.70;;;;;;4994134;28;20216;-88
2023/02/08 05:56:02;;;;;;;48.40;33.50;;;-3.10;89.80;;;;;;4994312;28;20209;-88
2023/02/08 05:58:27;;;;;;;48.17;34.17;;;-3.10;89.70;;;;;;4994011;28;20185;-88
2023/02/08 06:00:53;;;;;;;47.63;33.30;;;-3.10;89.60;;;;;;4994187;28;20264;-88
2023/02/08 06:03:19;;;;;;;51.53;33.53;;;-3.10;89.60;;;;;;4992631;28;20182;-88
2023/02/08 06:05:44;;;;;;;47.77;32.77;;;-3.20;89.50;;;;;;4992762;28;20188;-89
2023/02/08 06:08:10;;;;;;;49.30;35.00;;;-3.20;89.60;;;;;;4992838;28;20177;-89
2023/02/08 06:10:36;;;;;;;51.80;34.10;;;-3.20;89.60;;;;;;4992646;28;20234;-89
2023/02/08 06:13:03;;;;;;;52.93;36.73;;;-3.10;89.70;;;;;;4993853;28;20177;-88
2023/02/08 06:15:28;;;;;;;51.70;34.30;;;-3.10;89.70;;;;;;4993980;28;20269;-88
2023/02/08 06:17:54;;;;;;;52.63;36.10;;;-3.10;89.70;;;;;;4992892;28;20266;-88
2023/02/08 06:20:20;;;;;;;51.43;33.93;;;-3.10;89.70;;;;;;4992367;28;20213;-88
2023/02/08 06:22:45;;;;;;;54.43;34.90;;;-3.10;89.60;;;;;;4993005;28;20171;-89
2023/02/08 06:25:11;;;;;;;50.80;32.73;;;-3.00;89.70;;;;;;4992733;28;20722;-88
2023/02/08 06:27:36;;;;;;;56.53;34.73;;;-3.00;89.60;;;;;;4992785;28;20180;-88
2023/02/08 06:30:03;;;;;;;52.53;33.83;;;-3.00;89.50;;;;;;4992853;28;20572;-88
2023/02/08 06:32:28;;;;;;;50.47;34.50;;;-3.10;89.40;;;;;;4996290;28;20200;-88
2023/02/08 06:34:54;;;;;;;50.37;35.37;;;-3.10;89.30;;;;;;4996103;28;20191;-88
2023/02/08 06:37:19;;;;;;;51.97;33.13;;;-3.10;89.20;;;;;;4997040;28;20658;-88
2023/02/08 06:39:45;;;;;;;49.43;33.63;;;-3.20;89.10;;;;;;4997284;28;20208;-88
2023/02/08 06:42:11;;;;;;;48.07;33.97;;;-3.30;89.10;;;;;;4995867;28;20210;-88
2023/02/08 06:44:36;;;;;;;48.67;33.17;;;-3.40;89.00;;;;;;4996047;28;20174;-88
2023/02/08 06:47:02;;;;;;;46.23;32.63;;;-3.40;89.00;;;;;;4995830;28;20171;-88
2023/02/08 06:49:28;;;;;;;52.50;34.00;;;-3.40;89.00;;;;;;4995841;28;20229;-88
2023/02/08 06:51:53;;;;;;;47.27;31.10;;;-3.50;88.90;;;;;;4997162;28;20233;-88
2023/02/08 06:54:19;;;;;;;50.27;33.23;;;-3.50;88.90;;;;;;4995906;28;20172;-88
2023/02/08 06:56:44;;;;;;;48.73;30.73;;;-3.50;88.90;;;;;;4996964;28;20322;-88
2023/02/08 06:59:10;;;;;;;43.37;31.30;;;-3.50;88.80;;;;;;4995743;28;20684;-88
2023/02/08 07:01:35;;;;;;;48.33;32.47;;;-3.60;88.70;;;;;;4995614;28;20197;-88
2023/02/08 07:04:01;;;;;;;51.43;31.07;;;-3.60;88.60;;;;;;4996972;28;20234;-88
2023/02/08 07:06:26;;;;;;;44.07;30.67;;;-3.70;88.40;;;;;;4996900;28;20178;-88
2023/02/08 07:08:52;;;;;;;46.87;31.53;;;-3.70;88.40;;;;;;4997046;28;20183;-88
2023/02/08 07:11:19;;;;;;;45.97;31.87;;;-3.80;88.40;;;;;;4996852;28;20695;-89
2023/02/08 07:13:51;;;;;;;51.03;33.10;;;-3.80;88.50;;;;;;4996766;28;20176;-88
2023/02/08 07:16:18;;;;;;;47.37;32.80;;;-3.70;88.60;;;;;;4995546;28;20199;-88
2023/02/08 07:18:44;;;;;;;45.83;32.37;;;-3.70;88.50;;;;;;4995413;28;20203;-88
2023/02/08 07:21:10;;;;;;;46.50;33.07;;;-3.70;88.50;;;;;;4995132;28;20202;-88
2023/02/08 07:23:37;;;;;;;47.07;32.47;;;-3.70;88.60;;;;;;4995291;28;20175;-88
2023/02/08 07:26:08;;;;;;;51.40;33.63;;;-3.80;88.50;;;;;;4995544;28;20573;-88
2023/02/08 07:28:34;;;;;;;46.67;32.77;;;-3.70;88.70;;;;;;4995619;28;20183;-88
2023/02/08 07:31:04;;;;;;;46.73;34.07;;;-3.70;88.60;;;;;;4995271;28;20208;-88
2023/02/08 07:33:30;;;;;;;56.93;33.67;;;-3.60;88.70;;;;;;4995192;28;20642;-88
2023/02/08 07:35:55;;;;;;;45.80;33.57;;;-3.50;88.80;;;;;;4995437;28;20175;-88
2023/02/08 07:38:21;;;;;;;53.83;35.53;;;-3.50;88.80;;;;;;4995098;28;20533;-88
2023/02/08 07:40:47;;;;;;;50.33;33.17;;;-3.50;88.70;;;;;;4995340;28;20207;-88
2023/02/08 07:43:12;;;;;;;52.10;35.53;;;-3.50;88.80;;;;;;4995903;28;20728;-88
2023/02/08 07:45:38;;;;;;;52.47;34.90;;;-3.50;88.80;;;;;;4995029;28;20260;-88
2023/02/08 07:48:04;;;;;;;50.23;34.80;;;-3.50;88.90;;;;;;4995219;28;20645;-88
2023/02/08 07:50:29;;;;;;;50.63;34.00;;;-3.50;89.00;;;;;;4994943;28;20243;-88
2023/02/08 07:52:55;;;;;;;53.77;34.37;;;-3.50;89.10;;;;;;4995077;28;20178;-88
2023/02/08 07:55:20;;;;;;;54.10;38.03;;;-3.50;89.10;;;;;;4996015;28;20180;-88
2023/02/08 07:57:47;;;;;;;51.43;37.43;;;-3.40;89.30;;;;;;4994969;28;20179;-88
2023/02/08 08:00:14;;;;;;;52.37;36.67;;;-3.40;89.30;;;;;;4995748;28;20579;-88
2023/02/08 08:02:41;;;;;;;49.50;36.73;;;-3.30;89.40;;;;;;4994772;28;20274;-88
2023/02/08 08:05:07;;;;;;;60.00;40.10;;;-3.30;89.40;;;;;;4994879;28;20304;-88
2023/02/08 08:07:33;;;;;;;55.07;37.00;;;-3.30;89.40;;;;;;4995587;28;20184;-88
2023/02/08 08:09:58;;;;;;;53.80;38.67;;;-3.30;89.60;;;;;;4995482;28;20178;-88
2023/02/08 08:12:24;;;;;;;59.97;40.80;;;-3.20;89.70;;;;;;4994503;28;20200;-88
2023/02/08 08:14:50;;;;;;;59.27;39.73;;;-3.10;89.90;;;;;;4995777;28;20649;-89
2023/02/08 08:17:16;;;;;;;50.43;37.90;;;-3.10;89.90;;;;;;4994723;28;20645;-88
2023/02/08 08:19:42;;;;;;;54.17;38.00;;;-3.10;89.90;;;;;;4994238;28;20205;-88
2023/02/08 08:22:08;;;;;;;58.40;38.83;;;-3.10;89.90;;;;;;4993991;28;20251;-88
2023/02/08 08:24:36;;;;;;;62.37;41.53;;;-3.00;90.20;;;;;;4995440;28;20176;-88
2023/02/08 08:27:03;;;;;;;64.33;40.37;;;-2.80;90.30;;;;;;4994023;28;20632;-88
2023/02/08 08:29:31;;;;;;;59.10;39.77;;;-2.70;90.40;;;;;;4994174;28;20248;-88
2023/02/08 08:31:57;;;;;;;66.73;42.03;;;-2.60;90.30;;;;;;4995145;28;20250;-87
2023/02/08 08:34:28;;;;;;;62.17;43.27;;;-2.60;90.40;;;;;;4994805;28;20178;-87
2023/02/08 08:36:57;;;;;;;59.63;41.97;;;-2.50;90.40;;;;;;4994126;28;20178;-87
2023/02/08 08:39:24;;;;;;;64.30;43.50;;;-2.40;90.50;;;;;;4994282;28;20210;-87
2023/02/08 08:41:49;;;;;;;72.77;44.07;;;-2.40;90.50;;;;;;4993375;28;20683;-88
2023/02/08 08:44:15;;;;;;;65.33;43.57;;;-2.30;90.60;;;;;;4995179;28;20182;-88
2023/02/08 08:46:41;;;;;;;70.03;45.17;;;-2.30;90.50;;;;;;4993997;28;20171;-87
2023/02/08 08:49:06;;;;;;;68.77;44.97;;;-2.20;90.60;;;;;;4993686;28;20186;-88
2023/02/08 08:51:34;;;;;;;64.97;45.27;;;-2.20;90.60;;;;;;4994749;28;20205;-88
2023/02/08 08:54:04;;;;;;;61.87;42.10;;;-2.10;90.70;;;;;;4992902;28;20186;-89
2023/02/08 08:56:30;;;;;;;66.20;44.30;;;-2.10;90.70;;;;;;4993794;28;20185;-88
2023/02/08 08:58:55;;;;;;;59.43;42.17;;;-2.00;90.80;;;;;;4994729;28;20194;-89
2023/02/08 09:01:21;;;;;;;68.50;43.30;;;-2.00;90.70;;;;;;4993071;28;20189;-88
2023/02/08 09:03:46;;;;;;;68.37;44.20;;;-1.90;90.80;;;;;;4993251;28;20178;-89
2023/02/08 09:06:12;;;;;;;64.03;43.00;;;-1.80;90.80;;;;;;4993336;28;20224;-89
2023/02/08 09:08:38;;;;;;;66.77;43.53;;;-1.60;90.80;;;;;;4993105;28;20181;-89
2023/02/08 09:11:05;;;;;;;69.17;42.20;;;-1.70;90.70;;;;;;4994098;28;20320;-88
2023/02/08 09:13:32;;;;;;;67.17;43.77;;;-1.60;90.70;;;;;;4992929;28;20550;-89
2023/02/08 09:15:58;;;;;;;69.47;44.47;;;-1.60;90.50;;;;;;4992764;28;20555;-90
2023/02/08 09:18:23;;;;;;;61.63;42.37;;;-1.60;90.60;;;;;;4993926;28;20178;-89
2023/02/08 09:20:49;;;;;;;62.07;41.57;;;-1.60;90.40;;;;;;4992780;28;20611;-89
2023/02/08 09:23:14;;;;;;;67.97;41.03;;;-1.50;90.30;;;;;;4992845;28;20181;-89
2023/02/08 09:25:40;;;;;;;64.53;42.03;;;-1.50;90.20;;;;;;4993864;28;20249;-89
2023/02/08 09:28:05;;;;;;;67.97;43.87;;;-1.40;90.10;;;;;;4992728;28;20178;-89
2023/02/08 09:30:31;;;;;;;64.70;42.47;;;-1.20;90.20;;;;;;4993194;28;20190;-89
2023/02/08 09:32:57;;;;;;;69.40;41.73;;;-1.10;90.10;;;;;;4993938;28;20179;-89
2023/02/08 09:35:22;;;;;;;65.80;42.93;;;-1.10;89.90;;;;;;4992915;28;20183;-89
2023/02/08 09:37:53;;;;;;;68.70;43.53;;;-0.90;90.00;;;;;;4992689;28;20191;-89
2023/02/08 09:40:24;;;;;;;62.43;40.77;;;-0.80;89.90;;;;;;4992516;28;20311;-89
2023/02/08 09:43:02;;;;;;;62.87;41.47;;;-0.70;89.80;;;;;;4992729;28;20240;-89
2023/02/08 09:46:00;;;;;;;62.63;40.40;;;-0.60;89.60;;;;;;4992718;28;20178;-89
2023/02/08 09:48:37;;;;;;;59.77;40.23;;;-0.50;89.30;;;;;;4992327;28;20190;-89
2023/02/08 09:51:24;;;;;;;64.63;39.00;;;-0.30;88.90;;;;;;4992591;28;20195;-89
2023/02/08 09:54:05;;;;;;;54.20;35.30;;;-0.20;88.70;;;;;;4992582;28;20172;-89
2023/02/08 09:56:39;;;;;;;53.70;36.23;;;-0.10;88.00;;;;;;4992729;28;20214;-89
2023/02/08 09:59:11;;;;;;;54.67;35.67;;;0.00;86.80;;;;;;4992528;28;20217;-90
2023/02/08 10:01:37;;;;;;;52.47;35.70;;;0.00;86.30;;;;;;4993610;28;20226;-89
2023/02/08 10:04:40;;;;;;;53.73;34.67;;;0.00;85.80;;;;;;4993753;28;20191;-89
2023/02/08 10:07:08;;;;;;;59.40;35.83;;;0.20;85.60;;;;;;4997511;28;20230;-90
2023/02/08 10:09:33;;;;;;;53.87;34.83;;;0.40;85.60;;;;;;4996248;28;20183;-89
2023/02/08 10:12:12;;;;;;;52.23;34.37;;;0.50;84.80;;;;;;4997338;28;20272;-89
2023/02/08 10:14:56;;;;;;;55.57;32.77;;;0.50;84.30;;;;;;4996697;28;20663;-90
2023/02/08 10:17:48;;;;;;;49.17;34.33;;;0.70;83.50;;;;;;4997242;28;20264;-90
2023/02/08 10:20:28;;;;;;;46.00;32.90;;;0.80;83.10;;;;;;4997259;28;20200;-89
2023/02/08 10:23:15;;;;;;;48.10;32.17;;;0.90;81.70;;;;;;4996108;28;20271;-90
2023/02/08 10:26:11;;;;;;;44.60;33.87;;;0.90;82.10;;;;;;4997210;28;20168;-90
2023/02/08 10:29:01;;;;;;;44.60;32.60;;;1.00;82.90;;;;;;4996128;28;20187;-90
2023/02/08 10:32:13;;;;;;;48.23;33.70;;;1.20;83.00;;;;;;4996018;28;20204;-90
2023/02/08 10:34:45;;;;;;;48.93;34.00;;;1.30;82.30;;;;;;4979725;28;20216;-90
2023/02/08 10:37:22;;;;;;;46.97;32.10;;;1.40;81.50;;;;;;4996296;28;20174;-91
2023/02/08 10:39:49;;;;;;;46.03;31.60;;;1.70;81.30;;;;;;4996305;28;20205;-90
2023/02/08 10:42:18;;;;;;;41.97;31.40;;;1.60;80.00;;;;;;4996000;28;20225;-90
2023/02/08 10:45:02;;;;;;;48.47;33.23;;;1.70;79.80;;;;;;4996402;28;20636;-91
2023/02/08 10:47:46;;;;;;;47.63;33.63;;;1.90;79.40;;;;;;4996102;28;20177;-91
2023/02/08 10:50:19;;;;;;;49.17;33.73;;;2.00;79.30;;;;;;5001124;28;20615;-91
2023/02/08 10:52:46;;;;;;;49.83;32.77;;;2.00;79.40;;;;;;4998401;28;20179;-91
2023/02/08 10:55:18;;;;;;;44.50;33.43;;;2.20;78.90;;;;;;5000763;28;20252;-91
2023/02/08 10:57:46;;;;;;;43.30;33.07;;;2.20;78.50;;;;;;5000141;28;20675;-91
2023/02/08 11:00:17;;;;;;;47.00;33.83;;;2.40;79.10;;;;;;4997637;28;20691;-91
2023/02/08 11:02:45;;;;;;;43.57;32.57;;;2.50;79.00;;;;;;4999758;28;20220;-92
2023/02/08 11:05:15;;;;;;;47.00;34.03;;;2.40;77.60;;;;;;4998828;28;20661;-91
2023/02/08 11:07:41;;;;;;;44.30;34.30;;;2.60;78.10;;;;;;5001302;28;20182;-91
2023/02/08 11:10:19;;;;;;;41.50;32.07;;;2.80;77.90;;;;;;5000356;28;20179;-91
2023/02/08 11:13:02;;;;;;;44.13;34.20;;;2.80;76.60;;;;;;4997587;28;20580;-90
2023/02/08 11:15:52;;;;;;;43.60;32.90;;;2.90;76.20;;;;;;4995272;28;20648;-90
2023/02/08 11:18:33;;;;;;;45.60;35.30;;;2.90;76.10;;;;;;4995110;28;20323;-89
2023/02/08 11:21:03;;;;;;;45.57;33.80;;;3.00;75.60;;;;;;4995402;28;20197;-92
2023/02/08 11:23:42;;;;;;;43.77;33.40;;;3.00;76.10;;;;;;4995019;28;20183;-91
2023/02/08 11:26:29;;;;;;;40.87;32.93;;;3.20;75.80;;;;;;4996338;28;20182;-90
2023/02/08 11:28:59;;;;;;;41.57;32.57;;;3.20;75.30;;;;;;4994827;28;20220;-90
2023/02/08 11:31:24;;;;;;;39.20;32.00;;;3.20;74.10;;;;;;4994814;28;20712;-90
2023/02/08 11:34:08;;;;;;;45.37;32.13;;;3.30;73.90;;;;;;4995769;28;20179;-89
2023/02/08 11:36:36;;;;;;;42.67;32.67;;;3.40;73.80;;;;;;4994597;28;20183;-89
2023/02/08 11:39:14;;;;;;;52.30;36.33;;;3.50;74.50;;;;;;4994459;28;20297;-89
2023/02/08 11:41:44;;;;;;;45.67;34.50;;;3.60;74.10;;;;;;4994485;28;20227;-89
2023/02/08 11:44:18;;;;;;;65.57;39.97;;;3.70;74.20;;;;;;4994467;28;20179;-90
2023/02/08 11:46:47;;;;;;;72.83;42.73;;;3.70;72.70;;;;;;4995599;28;20160;-90
2023/02/08 11:49:31;;;;;;;43.77;32.47;;;3.70;72.60;;;;;;4994172;28;20207;-90
2023/02/08 11:51:56;;;;;;;46.90;34.33;;;3.70;73.40;;;;;;5018716;28;20184;-92
2023/02/08 11:54:35;;;;;;;55.97;37.50;;;3.90;73.20;;;;;;5019619;28;20167;-92
2023/02/08 11:57:08;;;;;;;48.07;34.20;;;4.00;72.90;;;;;;5012944;28;20172;-91
2023/02/08 11:59:34;;;;;;;42.63;32.73;;;3.90;72.90;;;;;;4995306;28;20204;-91
2023/02/08 12:02:37;;;;;;;41.23;33.43;;;4.00;71.80;;;;;;4994202;28;20288;-91
2023/02/08 12:05:10;;;;;;;44.67;35.70;;;4.10;71.90;;;;;;4994137;28;20172;-91
2023/02/08 12:08:06;;;;;;;39.57;32.40;;;4.30;72.60;;;;;;4994756;28;20176;-91
2023/02/08 12:11:00;;;;;;;40.33;33.20;;;4.30;72.20;;;;;;4994084;28;20231;-92
2023/02/08 12:13:51;;;;;;;40.87;34.13;;;4.30;71.40;;;;;;4994013;28;20191;-92
2023/02/08 12:16:35;;;;;;;41.20;34.53;;;4.40;71.50;;;;;;4994372;28;20178;-88
2023/02/08 12:19:19;;;;;;;39.53;32.77;;;4.40;71.60;;;;;;4993882;28;20212;-91
2023/02/08 12:21:48;;;;;;;46.97;33.50;;;4.60;71.60;;;;;;4993915;28;20201;-91
2023/02/08 12:24:22;;;;;;;48.20;34.57;;;4.60;69.70;;;;;;4993788;28;20236;-91
2023/02/08 12:27:13;;;;;;;41.57;34.23;;;4.60;70.40;;;;;;4993834;28;20173;-92
2023/02/08 12:29:53;;;;;;;47.63;34.30;;;4.70;71.10;;;;;;4992740;28;20165;-91
2023/02/08 12:32:40;;;;;;;51.77;36.37;;;4.80;69.90;;;;;;4994026;28;20203;-91
2023/02/08 12:35:27;;;;;;;47.37;33.30;;;4.90;71.10;;;;;;4994451;28;20540;-93
2023/02/08 12:40:54;;;;;;;39.87;34.27;;;5.10;68.60;;;;;;4998010;28;20582;-92
2023/02/08 12:43:28;;;;;;;39.07;32.60;;;5.00;69.60;;;;;;4996804;28;20665;-91
2023/02/08 12:46:20;;;;;;;39.07;32.03;;;5.20;70.00;;;;;;4998662;28;20230;-91
2023/02/08 12:49:07;;;;;;;40.60;33.60;;;5.10;67.80;;;;;;5000770;28;20280;-93